Time;durP1;ratioP1;P1;durP2;ratioP2;P2;SDS_P1;SDS_P2;PMS_P1;PMS_P2;Temp;Humidity;BMP_temperature;BMP_pressure;BME280_temperature;BME280_humidity;BME280_pressure;Samples;Min_cycle;Max_cycle;Signal;HPM_P1;HPM_P2
2023/02/16 00:01:17;;;;;;;18.07;14.00;;;;;;;4.06;91.01;152407.06;4983770;28;20832;-79
2023/02/16 00:03:44;;;;;;;16.33;11.97;;;;;;;4.02;91.15;152395.50;4981689;28;20854;-79
2023/02/16 00:06:14;;;;;;;14.63;12.27;;;;;;;3.93;90.63;152372.28;4986610;28;20484;-79
2023/02/16 00:08:42;;;;;;;15.57;12.50;;;;;;;3.86;91.93;152354.28;4997723;28;20452;-79
2023/02/16 00:14:00;;;;;;;21.33;13.13;;;;;;;3.71;92.77;152316.91;4983348;28;20847;-79
2023/02/16 00:16:27;;;;;;;14.80;12.00;;;;;;;3.67;92.74;152306.66;4986030;28;20617;-79
2023/02/16 00:18:53;;;;;;;15.60;11.33;;;;;;;3.61;92.73;152292.47;4985453;28;20453;-79
2023/02/16 00:21:21;;;;;;;16.70;12.40;;;;;;;3.62;93.61;152295.06;4998121;28;20475;-79
2023/02/16 00:23:48;;;;;;;16.17;13.30;;;;;;;3.60;93.04;152289.88;4969286;28;20792;-79
2023/02/16 00:26:18;;;;;;;19.63;12.83;;;;;;;3.61;95.26;152292.47;4970950;28;20474;-79
2023/02/16 00:28:46;;;;;;;16.53;12.70;;;;;;;3.56;92.99;152278.31;4960985;28;20531;-78
2023/02/16 00:31:18;;;;;;;18.97;14.00;;;;;;;3.55;93.43;152277.03;4980543;28;20494;-79
2023/02/16 00:33:44;;;;;;;14.60;12.90;;;;;;;3.53;94.30;152271.88;4970777;28;20520;-79
2023/02/16 00:36:11;;;;;;;17.33;13.83;;;;;;;3.51;93.63;152265.44;4989275;28;20490;-78
2023/02/16 00:38:38;;;;;;;17.93;13.03;;;;;;;3.46;93.79;152252.59;4983232;28;21016;-79
2023/02/16 00:41:49;;;;;;;14.90;12.37;;;;;;;3.43;93.71;152246.16;4978715;28;20457;-79
2023/02/16 00:43:54;;;;;;;17.43;14.13;;;;;;;3.41;93.91;152241.00;4988023;28;20468;-79
2023/02/16 00:46:21;;;;;;;15.30;12.53;;;;;;;3.43;94.10;152246.16;4991369;28;20471;-79
2023/02/16 00:48:48;;;;;;;18.30;13.33;;;;;;;3.46;94.91;152253.88;4964206;28;20503;-79
2023/02/16 00:51:14;;;;;;;16.53;13.83;;;;;;;3.47;93.81;152255.13;4983970;28;21022;-79
2023/02/16 00:53:41;;;;;;;20.03;13.77;;;;;;;3.44;92.99;152248.69;4988548;28;20453;-79
2023/02/16 00:56:09;;;;;;;18.70;14.73;;;;;;;3.43;93.67;152246.16;4973879;28;20506;-79
2023/02/16 00:58:36;;;;;;;19.60;14.00;;;;;;;3.38;93.14;152233.28;4962909;28;20514;-79
2023/02/16 01:01:08;;;;;;;17.90;14.40;;;;;;;3.37;93.64;152230.69;4953875;28;20559;-79
2023/02/16 01:03:36;;;;;;;18.77;14.53;;;;;;;3.30;93.11;152212.69;4971899;28;20472;-79
2023/02/16 01:11:34;;;;;;;20.67;14.40;;;;;;;3.13;94.50;152168.91;4955705;28;20451;-79
2023/02/16 01:14:01;;;;;;;18.10;15.27;;;;;;;3.18;94.99;152180.53;4968789;28;20813;-79
2023/02/16 01:16:38;;;;;;;24.43;15.30;;;;;;;3.12;94.93;152166.38;4978668;28;20553;-79
2023/02/16 01:19:05;;;;;;;16.37;13.90;;;;;;;3.10;94.88;152161.19;4975625;28;20539;-78
2023/02/16 01:21:31;;;;;;;17.70;14.47;;;;;;;3.08;95.20;152157.34;4968878;28;20543;-79
2023/02/16 01:24:00;;;;;;;16.13;13.80;;;;;;;3.04;94.31;152145.78;4972368;28;20494;-79
2023/02/16 01:26:27;;;;;;;18.53;14.77;;;;;;;3.01;96.00;152138.06;4991889;28;20537;-79
2023/02/16 01:28:54;;;;;;;16.83;13.33;;;;;;;3.00;95.88;152135.47;4987699;28;20460;-79
2023/02/16 01:31:21;;;;;;;18.90;14.20;;;;;;;2.98;95.45;152130.31;4976646;28;20461;-78
2023/02/16 01:33:49;;;;;;;18.10;13.73;;;;;;;2.97;95.43;152129.03;4983041;28;20956;-79
2023/02/16 01:36:24;;;;;;;18.07;12.47;;;;;;;2.92;94.77;152116.16;4992393;28;21081;-79
2023/02/16 01:38:50;;;;;;;18.80;14.00;;;;;;;2.93;95.40;152117.47;4980387;28;20443;-79
2023/02/16 01:41:22;;;;;;;16.40;12.20;;;;;;;2.98;95.55;152131.63;4983152;28;20836;-78
2023/02/16 01:43:53;;;;;;;15.20;13.10;;;;;;;3.05;95.46;152148.31;4957726;28;20495;-78
2023/02/16 01:46:23;;;;;;;16.03;13.67;;;;;;;3.13;94.93;152167.63;4977487;28;20489;-78
2023/02/16 01:48:51;;;;;;;15.10;11.80;;;;;;;3.13;95.18;152168.91;4982831;28;20542;-78
2023/02/16 01:51:21;;;;;;;16.30;11.50;;;;;;;3.13;93.55;152168.91;4984581;28;20467;-79
2023/02/16 01:53:51;;;;;;;16.33;11.70;;;;;;;3.15;93.45;152174.03;4994173;28;20484;-78
2023/02/16 01:56:28;;;;;;;14.73;13.17;;;;;;;3.14;93.27;152171.50;4959455;28;20466;-78
2023/02/16 01:58:58;;;;;;;13.70;12.20;;;;;;;3.17;93.68;152179.22;4977233;28;20437;-78
2023/02/16 02:01:42;;;;;;;16.10;12.07;;;;;;;3.14;92.81;152171.50;4988267;28;20453;-78
2023/02/16 02:07:05;;;;;;;13.50;11.03;;;;;;;3.10;93.96;152161.19;4989063;28;20956;-78
2023/02/16 02:09:37;;;;;;;14.70;11.87;;;;;;;3.07;92.93;152153.50;4994321;28;20467;-79
2023/02/16 02:12:10;;;;;;;14.33;11.33;;;;;;;3.04;93.06;152145.78;4976566;28;20902;-79
2023/02/16 02:14:39;;;;;;;16.27;11.40;;;;;;;3.04;94.68;152147.03;4962073;28;20468;-80
2023/02/16 02:17:08;;;;;;;16.37;12.13;;;;;;;3.00;93.45;152136.75;4982672;28;20460;-80
2023/02/16 02:19:45;;;;;;;15.70;11.53;;;;;;;3.03;94.63;152143.19;4976335;28;20457;-80
2023/02/16 02:25:28;;;;;;;14.50;11.60;;;;;;;2.92;94.53;152114.88;4963574;28;20460;-79
2023/02/16 02:27:59;;;;;;;15.00;10.37;;;;;;;2.85;94.71;152096.88;4967714;28;20467;-80
2023/02/16 02:30:37;;;;;;;14.97;11.63;;;;;;;2.84;95.09;152095.59;4980547;28;20452;-80
2023/02/16 02:33:22;;;;;;;14.70;11.70;;;;;;;2.85;94.59;152096.88;4959525;28;20456;-80
2023/02/16 02:35:56;;;;;;;13.97;11.63;;;;;;;2.84;94.35;152095.59;4986467;28;20487;-80
2023/02/16 02:38:27;;;;;;;13.43;10.60;;;;;;;2.81;95.69;152086.56;4989686;28;20459;-79
2023/02/16 02:41:03;;;;;;;12.67;10.50;;;;;;;2.77;95.25;152076.28;4964292;28;20502;-80
2023/02/16 02:43:36;;;;;;;14.67;11.60;;;;;;;2.75;94.91;152071.16;4966161;28;20483;-79
2023/02/16 02:46:08;;;;;;;15.43;10.90;;;;;;;2.75;95.09;152071.16;4962241;28;20475;-80
2023/02/16 02:48:35;;;;;;;13.83;10.90;;;;;;;2.75;94.98;152071.16;4960464;28;20511;-80
2023/02/16 02:51:28;;;;;;;14.90;11.00;;;;;;;2.71;94.76;152062.16;4975252;28;20453;-80
2023/02/16 03:02:22;;;;;;;12.63;10.93;;;;;;;2.61;94.67;152036.44;4994157;28;20479;-80
2023/02/16 03:04:48;;;;;;;13.43;10.47;;;;;;;2.59;94.50;152031.28;4981998;28;20546;-79
2023/02/16 03:07:15;;;;;;;15.53;10.40;;;;;;;2.59;95.08;152031.28;4982736;28;20467;-79
2023/02/16 03:09:42;;;;;;;17.90;10.57;;;;;;;2.60;95.26;152032.53;4993707;28;20513;-79
2023/02/16 03:14:59;;;;;;;11.63;9.70;;;;;;;2.65;96.30;152046.69;4973138;28;22088;-79
2023/02/16 03:31:17;;;;;;;12.97;10.53;;;;;;;2.60;95.45;152032.53;4976700;28;20460;-79
2023/02/16 03:33:44;;;;;;;11.53;9.90;;;;;;;2.63;95.02;152041.56;4980362;28;20447;-79
2023/02/16 03:36:11;;;;;;;11.40;9.73;;;;;;;2.63;95.30;152040.25;4999353;28;20979;-79
2023/02/16 03:38:38;;;;;;;12.50;9.80;;;;;;;2.63;95.46;152041.56;4979500;28;20467;-79
2023/02/16 03:41:05;;;;;;;12.27;9.90;;;;;;;2.63;95.35;152040.25;4973411;28;20564;-79
2023/02/16 03:43:32;;;;;;;11.00;9.00;;;;;;;2.66;94.80;152048.00;4979529;28;20476;-80
2023/02/16 03:45:59;;;;;;;13.57;10.80;;;;;;;2.67;95.06;152051.88;4970821;28;20453;-80
2023/02/16 03:48:27;;;;;;;13.80;9.37;;;;;;;2.68;94.97;152054.41;5001384;28;20476;-80
2023/02/16 03:50:54;;;;;;;12.30;9.93;;;;;;;2.68;94.32;152053.13;4988696;28;20444;-80
2023/02/16 03:53:20;;;;;;;14.30;10.10;;;;;;;2.66;94.87;152048.00;5005344;28;20449;-79
2023/02/16 03:55:48;;;;;;;12.60;10.23;;;;;;;2.67;94.71;152050.56;4980082;28;20514;-79
2023/02/16 03:58:16;;;;;;;13.30;9.90;;;;;;;2.69;94.11;152055.72;4983529;28;21013;-79
2023/02/16 04:00:43;;;;;;;11.33;9.30;;;;;;;2.72;94.74;152063.44;4989914;28;20505;-79
2023/02/16 04:03:10;;;;;;;10.63;9.10;;;;;;;2.68;94.59;152053.13;4968151;28;21040;-79
2023/02/16 04:05:39;;;;;;;12.93;10.80;;;;;;;2.69;94.55;152055.72;4973230;28;20546;-79
2023/02/16 04:08:06;;;;;;;11.20;10.00;;;;;;;2.71;94.85;152060.84;4982988;28;20451;-79
2023/02/16 04:10:33;;;;;;;10.60;9.50;;;;;;;2.72;95.17;152063.44;4987558;28;20548;-80
2023/02/16 04:12:59;;;;;;;11.47;9.00;;;;;;;2.69;95.32;152057.00;4990959;28;20858;-80
2023/02/16 04:15:27;;;;;;;10.80;9.27;;;;;;;2.69;94.83;152055.72;4986747;28;20477;-80
2023/02/16 04:17:54;;;;;;;13.30;10.00;;;;;;;2.65;95.01;152045.44;4991623;28;20207;-79
2023/02/16 04:20:24;;;;;;;12.67;9.10;;;;;;;2.66;95.30;152048.00;4980610;28;20534;-79
2023/02/16 04:22:52;;;;;;;12.77;9.50;;;;;;;2.68;95.21;152053.13;4975284;28;20574;-79
2023/02/16 04:25:19;;;;;;;10.70;9.20;;;;;;;2.67;95.19;152050.56;4982208;28;20549;-80
2023/02/16 04:27:48;;;;;;;12.20;9.53;;;;;;;2.65;94.88;152045.44;4996962;28;20444;-79
2023/02/16 04:30:17;;;;;;;12.03;9.93;;;;;;;2.68;95.37;152053.13;4974597;28;20498;-79
2023/02/16 04:32:44;;;;;;;10.57;8.53;;;;;;;2.66;95.71;152048.00;4978312;28;20542;-79
2023/02/16 04:35:11;;;;;;;13.40;10.00;;;;;;;2.66;95.52;152048.00;4990395;28;20480;-79
2023/02/16 04:37:37;;;;;;;13.90;10.60;;;;;;;2.65;95.81;152045.44;4974330;28;20502;-79
2023/02/16 04:40:07;;;;;;;12.80;9.50;;;;;;;2.63;95.45;152040.25;4957576;28;20532;-79
2023/02/16 04:42:34;;;;;;;11.97;9.40;;;;;;;2.60;95.92;152033.84;4975142;28;20479;-79
2023/02/16 04:45:00;;;;;;;11.90;9.30;;;;;;;2.61;95.75;152035.13;4997565;28;20461;-79
2023/02/16 04:47:27;;;;;;;13.03;9.10;;;;;;;2.64;95.19;152042.84;4991686;28;20459;-79
2023/02/16 04:49:54;;;;;;;12.10;9.73;;;;;;;2.61;95.54;152035.13;4987505;28;20442;-79
2023/02/16 04:52:21;;;;;;;12.37;9.57;;;;;;;2.61;95.96;152036.44;4989490;28;20456;-79
2023/02/16 04:54:47;;;;;;;10.77;9.27;;;;;;;2.61;96.22;152035.13;4986867;28;20567;-79
2023/02/16 04:57:16;;;;;;;12.40;8.70;;;;;;;2.61;96.05;152035.13;4997845;28;20451;-79
2023/02/16 04:59:42;;;;;;;15.37;9.90;;;;;;;2.61;95.55;152035.13;4992589;28;20485;-79
2023/02/16 05:02:09;;;;;;;10.47;9.33;;;;;;;2.58;95.51;152027.41;4988522;28;21030;-79
2023/02/16 05:04:36;;;;;;;12.30;9.50;;;;;;;2.56;95.61;152023.56;4989484;28;20450;-79
2023/02/16 05:07:03;;;;;;;11.30;9.40;;;;;;;2.53;96.07;152015.84;4973584;28;20456;-79
2023/02/16 05:09:29;;;;;;;11.70;9.87;;;;;;;2.51;95.82;152010.72;4978547;28;20461;-79
2023/02/16 05:14:41;;;;;;;10.83;9.73;;;;;;;2.44;95.85;151993.97;4994462;28;20475;-80
2023/02/16 05:17:09;;;;;;;12.87;9.80;;;;;;;2.41;95.82;151986.25;4985325;28;20503;-79
2023/02/16 05:19:36;;;;;;;11.03;9.67;;;;;;;2.38;95.99;151978.53;4993326;28;20452;-79
2023/02/16 05:22:03;;;;;;;12.30;9.70;;;;;;;2.33;96.72;151964.44;4974009;28;20448;-79
2023/02/16 05:24:29;;;;;;;12.93;9.73;;;;;;;2.29;96.83;151955.41;5000301;28;20542;-79
2023/02/16 05:26:56;;;;;;;12.87;9.80;;;;;;;2.28;96.75;151951.53;4971076;28;21046;-79
2023/02/16 05:29:23;;;;;;;13.40;10.30;;;;;;;2.31;97.26;151960.53;4971969;28;20863;-79
2023/02/16 05:31:51;;;;;;;14.10;10.10;;;;;;;2.26;97.09;151946.41;4991290;28;20570;-79
2023/02/16 05:34:18;;;;;;;12.90;9.40;;;;;;;2.25;97.24;151945.09;4975114;28;21010;-79
2023/02/16 05:36:45;;;;;;;17.50;10.53;;;;;;;2.22;97.10;151936.13;4969744;28;20477;-79
2023/02/16 05:39:12;;;;;;;14.13;9.70;;;;;;;2.24;97.71;151942.56;4985692;28;20514;-79
2023/02/16 05:41:38;;;;;;;12.73;9.90;;;;;;;2.22;97.30;151936.13;4970750;28;21020;-79
2023/02/16 05:44:05;;;;;;;12.80;10.40;;;;;;;2.20;97.19;151932.25;4985966;28;21080;-79
2023/02/16 05:46:33;;;;;;;15.37;10.43;;;;;;;2.24;97.58;151941.25;4988368;28;20545;-79
2023/02/16 05:49:02;;;;;;;12.77;10.43;;;;;;;2.23;97.47;151939.97;4974137;28;21021;-79
2023/02/16 05:51:28;;;;;;;13.03;10.27;;;;;;;2.22;96.83;151937.44;4991147;28;20491;-79
2023/02/16 05:53:55;;;;;;;11.00;9.53;;;;;;;2.19;97.88;151929.72;4986252;28;20550;-79
2023/02/16 05:56:22;;;;;;;13.13;10.03;;;;;;;2.18;98.04;151927.13;4987137;28;21061;-79
2023/02/16 05:58:49;;;;;;;17.53;11.00;;;;;;;2.16;98.29;151921.97;4971309;28;20954;-79
2023/02/16 06:01:17;;;;;;;12.00;10.07;;;;;;;2.12;98.02;151911.69;4976925;28;20609;-79
2023/02/16 06:03:44;;;;;;;15.43;10.97;;;;;;;2.16;98.43;151920.69;4984963;28;20593;-79
2023/02/16 06:06:12;;;;;;;16.43;12.07;;;;;;;2.11;98.32;151909.13;4950894;28;20492;-79
2023/02/16 06:08:38;;;;;;;11.77;10.17;;;;;;;2.12;98.38;151911.69;4970182;28;20602;-78
2023/02/16 06:11:34;;;;;;;13.00;10.07;;;;;;;2.11;98.46;151909.13;4967626;28;20550;-79
2023/02/16 06:13:54;;;;;;;14.93;11.10;;;;;;;2.09;98.55;151902.72;4979435;28;20454;-79
2023/02/16 06:16:20;;;;;;;13.50;10.10;;;;;;;2.10;98.59;151906.53;4965145;28;20453;-79
2023/02/16 06:18:47;;;;;;;13.30;11.60;;;;;;;2.09;98.51;151903.94;4971185;28;21017;-79
2023/02/16 06:21:15;;;;;;;14.63;11.17;;;;;;;2.12;98.90;151911.69;4965294;28;20809;-79
2023/02/16 06:23:42;;;;;;;15.80;10.03;;;;;;;2.12;98.56;151911.69;4968754;28;20489;-78
2023/02/16 06:26:08;;;;;;;15.00;11.47;;;;;;;2.11;98.45;151909.13;4983230;28;20452;-79
2023/02/16 06:28:35;;;;;;;14.30;10.47;;;;;;;2.09;99.15;151903.94;4980181;28;20967;-79
2023/02/16 06:31:02;;;;;;;12.70;9.47;;;;;;;2.11;98.84;151907.84;4980350;28;20475;-79
2023/02/16 06:33:28;;;;;;;12.50;9.17;;;;;;;2.09;98.85;151902.72;4957910;28;21029;-79
2023/02/16 06:35:55;;;;;;;13.50;10.03;;;;;;;2.11;99.22;151909.13;4967579;28;20527;-79
2023/02/16 06:38:23;;;;;;;14.17;11.07;;;;;;;2.10;99.23;151906.53;4967003;28;20459;-79
2023/02/16 06:40:51;;;;;;;14.63;10.10;;;;;;;2.11;98.91;151909.13;4979538;28;21104;-78
2023/02/16 06:43:18;;;;;;;14.63;9.73;;;;;;;2.12;99.00;151911.69;4980787;28;20479;-79
2023/02/16 06:45:45;;;;;;;13.57;10.50;;;;;;;2.16;99.33;151920.69;4982295;28;20457;-79
2023/02/16 06:48:11;;;;;;;14.73;10.90;;;;;;;2.17;99.20;151924.53;4983807;28;20499;-78
2023/02/16 06:50:38;;;;;;;13.43;10.43;;;;;;;2.18;99.94;151925.81;4981220;28;20464;-78
2023/02/16 06:53:05;;;;;;;13.20;9.90;;;;;;;2.23;99.55;151939.97;4965324;28;20451;-79
2023/02/16 06:55:35;;;;;;;14.83;11.30;;;;;;;2.31;99.30;151960.53;4976527;28;20875;-78
2023/02/16 06:58:02;;;;;;;15.00;10.47;;;;;;;2.32;99.86;151963.13;4974708;28;20590;-78
2023/02/16 07:00:29;;;;;;;15.93;11.20;;;;;;;2.33;99.39;151964.44;4963229;28;20809;-79
2023/02/16 07:02:56;;;;;;;13.13;9.30;;;;;;;2.29;99.17;151955.41;4977701;28;20454;-79
2023/02/16 07:05:22;;;;;;;18.57;11.00;;;;;;;2.31;99.28;151960.53;4962512;28;20443;-79
2023/02/16 07:07:49;;;;;;;13.80;10.23;;;;;;;2.36;99.15;151972.09;4978109;28;20858;-79
2023/02/16 07:10:16;;;;;;;16.07;11.27;;;;;;;2.49;99.40;152004.28;4966263;28;20822;-79
2023/02/16 07:12:44;;;;;;;12.87;11.43;;;;;;;2.64;99.33;152042.84;4964879;28;20531;-79
2023/02/16 07:15:10;;;;;;;17.20;11.30;;;;;;;2.91;98.94;152113.56;4963839;28;20515;-79
2023/02/16 07:17:40;;;;;;;14.00;11.50;;;;;;;3.26;99.41;152202.38;4962444;28;20451;-79
2023/02/16 07:20:11;;;;;;;17.57;12.50;;;;;;;3.57;97.95;152282.16;4968985;28;20500;-79
2023/02/16 07:22:38;;;;;;;14.80;11.63;;;;;;;3.91;96.85;152368.47;4980286;28;20947;-79
2023/02/16 07:25:08;;;;;;;13.03;11.60;;;;;;;4.20;95.43;152441.84;4977497;28;20568;-78
2023/02/16 07:27:40;;;;;;;13.03;10.80;;;;;;;4.46;94.84;152508.81;4966307;28;20956;-79
2023/02/16 07:30:09;;;;;;;14.87;11.70;;;;;;;4.55;93.41;152530.72;4968114;28;20539;-79
2023/02/16 07:32:36;;;;;;;21.30;11.63;;;;;;;4.82;92.51;152600.28;4979460;28;20469;-79
2023/02/16 07:35:03;;;;;;;15.20;10.90;;;;;;;5.03;91.44;152654.41;4966208;28;20457;-79
2023/02/16 07:37:30;;;;;;;11.30;10.10;;;;;;;5.25;91.65;152709.84;4969032;28;20564;-79
2023/02/16 07:39:57;;;;;;;17.30;12.20;;;;;;;5.45;90.66;152761.44;4966154;28;20490;-79
2023/02/16 07:42:39;;;;;;;13.80;11.40;;;;;;;5.68;89.87;152820.75;4980001;28;20894;-79
2023/02/16 07:45:11;;;;;;;13.87;11.50;;;;;;;5.95;88.91;152890.44;4965033;28;20470;-79
2023/02/16 07:47:38;;;;;;;12.50;10.50;;;;;;;6.20;87.35;152953.63;4975636;28;22166;-79
2023/02/16 07:50:06;;;;;;;14.30;11.37;;;;;;;6.36;84.25;152994.91;4967315;28;20509;-79
2023/02/16 07:52:34;;;;;;;13.87;11.40;;;;;;;6.61;83.11;153058.16;4977729;28;20468;-79
2023/02/16 07:55:01;;;;;;;15.77;10.30;;;;;;;6.72;82.15;153086.56;4964783;28;20458;-79
2023/02/16 07:57:34;;;;;;;16.73;11.23;;;;;;;6.94;81.76;153143.34;4978061;28;20468;-79
2023/02/16 08:00:06;;;;;;;13.27;11.37;;;;;;;7.19;80.30;153206.63;4977695;28;20476;-79
2023/02/16 08:02:40;;;;;;;13.97;11.30;;;;;;;7.24;79.79;153220.81;4967841;28;20460;-79
2023/02/16 08:05:10;;;;;;;14.60;11.70;;;;;;;7.42;79.11;153266.00;4971612;28;20556;-86
2023/02/16 08:07:38;;;;;;;14.97;12.40;;;;;;;7.54;78.20;153295.72;4967255;28;20451;-85
2023/02/16 08:10:06;;;;;;;15.53;11.47;;;;;;;7.45;76.73;153273.75;4983631;28;20543;-85
2023/02/16 08:12:33;;;;;;;13.73;11.57;;;;;;;7.45;78.42;153272.47;4965734;28;20454;-85
2023/02/16 08:14:59;;;;;;;15.90;11.90;;;;;;;7.43;77.21;153268.59;4964918;28;20485;-86
2023/02/16 08:17:26;;;;;;;15.10;11.03;;;;;;;7.39;77.51;153257.00;4964788;28;20450;-86
2023/02/16 08:19:54;;;;;;;15.93;12.97;;;;;;;7.35;77.77;153249.25;4966270;28;20565;-85
2023/02/16 08:22:21;;;;;;;15.43;11.13;;;;;;;7.30;76.99;153236.34;4967638;28;20926;-85
2023/02/16 08:24:48;;;;;;;13.40;11.90;;;;;;;7.25;76.93;153222.13;4965534;28;20466;-85
2023/02/16 08:27:14;;;;;;;16.53;12.17;;;;;;;7.23;77.61;153218.22;4964795;28;20560;-85
2023/02/16 08:29:41;;;;;;;12.87;10.90;;;;;;;7.14;76.26;153195.00;4980313;28;20453;-85
2023/02/16 08:32:10;;;;;;;15.53;12.93;;;;;;;7.16;77.90;153198.84;4978272;28;20551;-86
2023/02/16 08:34:37;;;;;;;15.87;11.63;;;;;;;7.16;76.80;153198.84;4978889;28;20504;-86
2023/02/16 08:37:05;;;;;;;17.83;13.47;;;;;;;7.13;77.05;153191.09;4963510;28;20488;-86
2023/02/16 08:39:34;;;;;;;14.13;12.20;;;;;;;7.10;77.53;153184.66;4967908;28;20455;-86
2023/02/16 08:42:01;;;;;;;16.33;13.53;;;;;;;7.15;78.21;153196.25;4978318;28;20455;-85
2023/02/16 08:44:29;;;;;;;16.17;12.37;;;;;;;7.27;80.42;153228.56;4977816;28;20573;-86
2023/02/16 08:46:59;;;;;;;16.00;12.70;;;;;;;7.25;77.37;153222.13;4987906;28;20455;-86
2023/02/16 08:49:26;;;;;;;16.90;13.60;;;;;;;7.25;76.63;153223.38;4975469;28;20537;-85
2023/02/16 08:51:55;;;;;;;13.83;12.17;;;;;;;7.23;78.47;153216.91;4980599;28;20549;-86
2023/02/16 08:54:25;;;;;;;15.93;12.20;;;;;;;7.38;77.58;153255.69;4969927;28;20446;-86
2023/02/16 08:56:54;;;;;;;15.90;13.03;;;;;;;7.43;77.62;153268.59;4967159;28;20553;-85
2023/02/16 08:59:22;;;;;;;15.23;12.70;;;;;;;7.46;77.86;153275.06;4986572;28;20458;-86
2023/02/16 09:01:49;;;;;;;16.83;12.30;;;;;;;7.50;77.38;153285.38;4982355;28;20450;-85
2023/02/16 09:04:18;;;;;;;13.80;11.73;;;;;;;7.52;76.20;153290.56;4985401;28;20982;-86
2023/02/16 09:06:47;;;;;;;16.93;13.03;;;;;;;7.58;76.86;153306.03;4982117;28;20533;-85
2023/02/16 09:09:14;;;;;;;14.23;12.37;;;;;;;7.64;76.42;153321.56;4970609;28;20454;-85
2023/02/16 09:11:42;;;;;;;16.53;12.23;;;;;;;7.76;75.72;153353.84;4970044;28;20453;-85
2023/02/16 09:14:09;;;;;;;15.60;11.57;;;;;;;7.74;76.44;153348.69;4986627;28;20454;-85
2023/02/16 09:16:38;;;;;;;13.63;10.33;;;;;;;7.75;76.40;153349.97;4988798;28;20462;-85
2023/02/16 09:19:05;;;;;;;17.33;13.93;;;;;;;7.75;76.50;153351.28;4972342;28;20955;-85
2023/02/16 09:21:32;;;;;;;15.23;11.53;;;;;;;7.86;75.03;153378.41;4970161;28;20489;-85
2023/02/16 09:24:02;;;;;;;11.83;10.10;;;;;;;7.81;75.68;153365.50;4982638;28;20513;-85
2023/02/16 09:26:32;;;;;;;16.80;11.90;;;;;;;7.94;75.80;153399.09;4967914;28;20446;-85
2023/02/16 09:29:00;;;;;;;15.60;11.73;;;;;;;7.93;75.34;153397.78;4969770;28;20539;-85
2023/02/16 09:31:29;;;;;;;14.10;11.70;;;;;;;7.94;75.06;153399.09;4985538;28;20454;-85
2023/02/16 09:34:00;;;;;;;13.70;9.90;;;;;;;7.94;74.75;153399.09;4969223;28;20454;-85
2023/02/16 09:36:27;;;;;;;16.03;10.77;;;;;;;8.01;74.72;153415.84;4983377;28;20509;-85
2023/02/16 09:38:55;;;;;;;12.50;11.07;;;;;;;8.04;75.37;153424.91;4973632;28;20814;-86
2023/02/16 09:41:29;;;;;;;13.60;10.50;;;;;;;8.09;73.93;153436.53;4972740;28;21016;-85
2023/02/16 09:43:58;;;;;;;11.23;9.67;;;;;;;8.08;73.25;153433.94;4970425;28;20449;-85
2023/02/16 09:46:29;;;;;;;16.40;11.40;;;;;;;8.11;73.90;153443.00;4982749;28;20548;-85
2023/02/16 09:48:55;;;;;;;15.83;10.93;;;;;;;8.06;73.39;153428.75;4972978;28;20848;-85
2023/02/16 09:51:25;;;;;;;14.70;11.10;;;;;;;8.00;73.74;153414.53;4970737;28;20460;-85
2023/02/16 09:53:57;;;;;;;15.80;11.50;;;;;;;8.15;73.79;153453.34;4984955;28;20462;-85
2023/02/16 09:56:28;;;;;;;13.80;8.90;;;;;;;8.19;72.73;153463.66;4963279;28;20442;-85
2023/02/16 09:58:58;;;;;;;15.70;9.63;;;;;;;8.25;74.28;153477.88;4981204;28;21007;-85
2023/02/16 10:01:32;;;;;;;12.03;9.60;;;;;;;8.23;72.24;153474.03;4950599;28;20799;-85
2023/02/16 10:04:06;;;;;;;12.33;10.80;;;;;;;8.32;71.97;153497.31;4980301;28;20462;-85
2023/02/16 10:06:48;;;;;;;13.00;9.50;;;;;;;8.40;71.33;153516.69;4967130;28;20438;-86
2023/02/16 10:09:17;;;;;;;13.10;10.13;;;;;;;8.51;70.76;153546.44;4984067;28;20444;-85
2023/02/16 10:11:47;;;;;;;11.80;8.90;;;;;;;8.52;70.08;153549.00;4967993;28;20533;-85
2023/02/16 10:14:30;;;;;;;15.43;9.53;;;;;;;8.60;69.62;153568.44;4966881;28;20945;-85
2023/02/16 10:17:04;;;;;;;11.17;8.47;;;;;;;8.75;68.58;153605.91;4972941;28;20472;-87
2023/02/16 10:19:35;;;;;;;11.70;9.73;;;;;;;8.75;68.89;153605.91;4967777;28;20488;-85
2023/02/16 10:22:03;;;;;;;9.60;8.53;;;;;;;8.82;68.96;153623.97;4969900;28;20461;-85
2023/02/16 10:24:33;;;;;;;10.63;8.57;;;;;;;8.84;69.05;153629.19;4983021;28;20547;-85
2023/02/16 10:27:03;;;;;;;12.33;10.27;;;;;;;8.86;68.98;153634.34;4973277;28;20442;-85
2023/02/16 10:29:30;;;;;;;11.43;8.97;;;;;;;8.81;69.44;153621.41;4989518;28;20482;-85
2023/02/16 10:32:12;;;;;;;10.63;7.90;;;;;;;8.89;67.76;153642.13;4975597;28;20457;-85
2023/02/16 10:34:48;;;;;;;8.87;7.57;;;;;;;8.94;67.06;153656.34;4966139;28;20442;-85
2023/02/16 10:37:23;;;;;;;9.53;7.77;;;;;;;8.99;67.50;153667.97;4981293;28;20467;-85
2023/02/16 10:39:56;;;;;;;10.43;7.43;;;;;;;9.16;65.95;153713.22;4981313;28;20531;-85
2023/02/16 10:42:29;;;;;;;7.80;7.00;;;;;;;9.42;64.39;153777.91;4982420;28;20477;-85
2023/02/16 10:45:00;;;;;;;9.10;6.50;;;;;;;9.36;64.89;153763.66;4977234;28;20468;-85
2023/02/16 10:47:33;;;;;;;7.57;5.93;;;;;;;9.41;64.71;153776.59;4995503;28;20641;-85
2023/02/16 10:50:00;;;;;;;9.37;6.73;;;;;;;9.32;63.76;153753.31;4988225;28;20533;-85
2023/02/16 10:52:29;;;;;;;8.10;6.50;;;;;;;9.60;62.26;153824.47;4969722;28;20451;-85
2023/02/16 10:54:56;;;;;;;10.70;8.50;;;;;;;9.74;61.93;153861.97;4982061;28;20533;-86
2023/02/16 10:57:26;;;;;;;9.33;6.33;;;;;;;9.87;60.94;153893.06;4977989;28;20857;-85
2023/02/16 10:59:54;;;;;;;7.63;6.60;;;;;;;9.96;60.90;153916.31;4983007;28;20966;-85
2023/02/16 11:02:24;;;;;;;8.47;6.53;;;;;;;9.86;61.26;153890.44;4969769;28;20466;-85
2023/02/16 11:04:53;;;;;;;10.07;6.80;;;;;;;9.68;62.26;153845.16;4983269;28;20481;-85
2023/02/16 11:07:22;;;;;;;10.70;5.97;;;;;;;9.82;61.83;153880.13;4969253;28;20550;-85
2023/02/16 11:09:51;;;;;;;7.33;6.10;;;;;;;10.23;60.79;153986.28;4981803;28;20505;-86
2023/02/16 11:12:31;;;;;;;6.60;5.60;;;;;;;10.13;60.91;153960.41;4982823;28;20919;-86
2023/02/16 11:15:02;;;;;;;7.83;6.10;;;;;;;10.29;59.95;154001.81;4969540;28;20843;-86
2023/02/16 11:17:31;;;;;;;7.00;5.97;;;;;;;10.36;59.82;154021.22;4980594;28;20450;-86
2023/02/16 11:20:04;;;;;;;7.90;5.47;;;;;;;10.19;61.75;153975.94;4981867;28;20458;-86
2023/02/16 11:22:34;;;;;;;8.67;7.43;;;;;;;10.31;60.68;154007.00;4967100;28;20465;-85
2023/02/16 11:25:28;;;;;;;8.70;6.37;;;;;;;10.41;60.53;154032.88;4980301;28;20722;-85
2023/02/16 11:27:56;;;;;;;9.83;6.20;;;;;;;10.27;61.43;153996.66;4943784;28;20493;-85
2023/02/16 11:30:31;;;;;;;8.07;6.17;;;;;;;10.20;61.98;153978.50;4970284;28;20450;-86
2023/02/16 11:32:59;;;;;;;10.83;6.00;;;;;;;10.08;61.69;153947.41;4980477;28;20624;-86
2023/02/16 11:35:27;;;;;;;10.10;7.70;;;;;;;10.09;62.14;153949.97;4965808;28;20504;-86
2023/02/16 11:37:54;;;;;;;9.87;7.03;;;;;;;10.21;61.52;153981.09;4963215;28;20558;-85
2023/02/16 11:40:24;;;;;;;12.50;6.70;;;;;;;10.24;61.21;153988.88;4944678;28;20458;-86
2023/02/16 11:42:52;;;;;;;8.83;6.53;;;;;;;10.36;60.95;154021.22;4967846;28;20459;-85
2023/02/16 11:45:25;;;;;;;7.33;5.87;;;;;;;10.62;59.77;154085.94;4961706;28;20578;-86
2023/02/16 11:47:54;;;;;;;9.23;5.53;;;;;;;10.72;59.29;154111.88;4963725;28;20455;-86
2023/02/16 11:50:24;;;;;;;9.70;5.63;;;;;;;10.69;60.03;154105.41;4960179;28;20454;-86
2023/02/16 11:52:56;;;;;;;8.53;5.10;;;;;;;10.80;60.03;154133.84;4962489;28;20459;-85
2023/02/16 11:55:26;;;;;;;7.97;5.83;;;;;;;10.77;60.09;154126.13;4960914;28;20439;-85
2023/02/16 11:57:55;;;;;;;8.10;5.63;;;;;;;10.64;63.47;154092.47;4958907;28;20542;-85
2023/02/16 12:00:23;;;;;;;6.30;4.83;;;;;;;10.63;60.36;154089.84;4962119;28;20798;-85
2023/02/16 12:03:14;;;;;;;5.83;4.60;;;;;;;10.61;60.52;154084.69;4962107;28;20553;-86
2023/02/16 12:05:50;;;;;;;6.90;5.87;;;;;;;10.59;60.78;154079.47;4960752;28;20698;-86
2023/02/16 12:08:31;;;;;;;6.97;5.63;;;;;;;10.64;59.80;154092.47;4961334;28;20454;-86
2023/02/16 12:11:10;;;;;;;7.40;4.73;;;;;;;10.65;60.96;154093.72;4959897;28;20513;-79